LCGO2: Spring Creek Locust Grove, OK

Data processed at Fri Apr 20 2018 23:54


All information presented herein is the property of the government of the United States of America and may be revised or deleted at any time without prior notice.
Dissemination of this information without the expressed written consent of the Public Affairs Office, Tulsa District U.S. Army Corps of Engineers is strictly prohibited.
These data are gathered electronically and, as presented, have not undergone any form of quality control. These data are not guaranteed to be valid or correct.
Go to home page.
Go to station list.


Previous Day
Next Day
Current Day


    
SHEF ID:       LCGO2     Spring Creek at Locust Grove
STATION TYPE:  

               PRECIP     STAGE  RIV-FLOW   VOLTAGE  BAT-LOAD
                   in        ft       cfs      volt      volt
              Ccp-Rev   Ccp-Rev   Ccp-Rev   Ccp-Rev   Ccp-Rev
(US/Central)
04/18 00:00      0.00     12.72       110     12.73     12.65
04/18 01:00      0.00     12.72       110     12.73     12.65
04/18 02:00      0.00     12.72       110     12.73     12.65
04/18 03:00      0.00     12.72       110     12.65     12.65
04/18 04:00      0.00     12.70       108     12.65     12.65
04/18 05:00      0.00     12.72       110     12.65     12.57
04/18 06:00      0.00     12.72       110     12.65     12.57
04/18 07:00      0.00     12.72       110     12.65     12.57
04/18 08:00      0.00      ----      ----     13.21     12.97
04/18 09:00      0.00      ----      ----     13.37     13.29
04/18 10:00      0.00     12.71       109     13.37     13.44
04/18 11:00      0.00      ----      ----     13.44     13.37
04/18 12:00      0.00     12.69       107     13.05     12.97
04/18 13:00      0.00     12.75       113     13.37     13.84
04/18 14:00      0.00     12.75       113     14.08     13.29
04/18 15:00      0.00     12.67       105     13.68     13.92
04/18 16:00      0.00     12.69       107     13.53     12.97
04/18 17:00      0.00     12.73       111     14.16     12.97
04/18 18:00      0.00     12.74       112     13.76     13.05
04/18 19:00      0.00     12.74       112     13.13     13.05
04/18 20:00      0.00     12.75       113     12.97     12.89
04/18 21:00      0.00     12.76       114     12.81     12.73
04/18 22:00      0.00     12.76       114     12.73     12.65
04/18 23:00      0.00     12.76       114     12.73     12.65